sensor_id;sensor_type;location;lat;lon;timestamp;P1;durP1;ratioP1;P2;durP2;ratioP2
27365;SDS011;14837;57.148;-2.144;2023-04-26T00:01:18;3.00;;;1.90;;
27365;SDS011;14837;57.148;-2.144;2023-04-26T00:03:44;3.42;;;1.77;;
27365;SDS011;14837;57.148;-2.144;2023-04-26T00:06:12;5.45;;;2.20;;
27365;SDS011;14837;57.148;-2.144;2023-04-26T00:08:39;4.75;;;1.85;;
27365;SDS011;14837;57.148;-2.144;2023-04-26T00:11:07;3.90;;;1.77;;
27365;SDS011;14837;57.148;-2.144;2023-04-26T00:13:34;3.45;;;1.88;;
27365;SDS011;14837;57.148;-2.144;2023-04-26T00:16:02;3.53;;;1.83;;
27365;SDS011;14837;57.148;-2.144;2023-04-26T00:18:29;2.72;;;1.70;;
27365;SDS011;14837;57.148;-2.144;2023-04-26T00:20:56;5.10;;;1.88;;
27365;SDS011;14837;57.148;-2.144;2023-04-26T00:23:23;4.97;;;1.98;;
27365;SDS011;14837;57.148;-2.144;2023-04-26T00:25:50;4.03;;;2.17;;
27365;SDS011;14837;57.148;-2.144;2023-04-26T00:28:16;4.75;;;2.10;;
27365;SDS011;14837;57.148;-2.144;2023-04-26T00:30:43;4.80;;;1.90;;
27365;SDS011;14837;57.148;-2.144;2023-04-26T00:33:13;12.52;;;2.15;;
27365;SDS011;14837;57.148;-2.144;2023-04-26T00:35:40;2.33;;;1.73;;
27365;SDS011;14837;57.148;-2.144;2023-04-26T00:38:06;3.25;;;1.98;;
27365;SDS011;14837;57.148;-2.144;2023-04-26T00:40:33;5.68;;;1.60;;
27365;SDS011;14837;57.148;-2.144;2023-04-26T00:43:01;4.65;;;1.63;;
27365;SDS011;14837;57.148;-2.144;2023-04-26T00:45:28;7.78;;;1.52;;
27365;SDS011;14837;57.148;-2.144;2023-04-26T00:47:55;3.25;;;2.00;;
27365;SDS011;14837;57.148;-2.144;2023-04-26T00:50:21;5.38;;;1.52;;
27365;SDS011;14837;57.148;-2.144;2023-04-26T00:52:49;3.70;;;1.60;;
27365;SDS011;14837;57.148;-2.144;2023-04-26T00:55:15;4.30;;;1.67;;
27365;SDS011;14837;57.148;-2.144;2023-04-26T00:57:42;3.40;;;1.70;;
27365;SDS011;14837;57.148;-2.144;2023-04-26T01:00:10;4.03;;;1.75;;
27365;SDS011;14837;57.148;-2.144;2023-04-26T01:02:36;3.97;;;1.50;;
27365;SDS011;14837;57.148;-2.144;2023-04-26T01:05:04;4.15;;;1.25;;
27365;SDS011;14837;57.148;-2.144;2023-04-26T01:07:31;5.25;;;1.50;;
27365;SDS011;14837;57.148;-2.144;2023-04-26T01:09:58;3.42;;;1.85;;
27365;SDS011;14837;57.148;-2.144;2023-04-26T01:12:25;3.78;;;1.38;;
27365;SDS011;14837;57.148;-2.144;2023-04-26T01:14:52;2.40;;;1.38;;
27365;SDS011;14837;57.148;-2.144;2023-04-26T01:17:19;8.32;;;2.20;;
27365;SDS011;14837;57.148;-2.144;2023-04-26T01:19:46;5.15;;;1.33;;
27365;SDS011;14837;57.148;-2.144;2023-04-26T01:22:13;12.18;;;2.25;;
27365;SDS011;14837;57.148;-2.144;2023-04-26T01:24:40;5.93;;;1.45;;
27365;SDS011;14837;57.148;-2.144;2023-04-26T01:27:07;5.05;;;1.77;;
27365;SDS011;14837;57.148;-2.144;2023-04-26T01:29:34;4.13;;;1.23;;
27365;SDS011;14837;57.148;-2.144;2023-04-26T01:32:01;4.90;;;1.98;;
27365;SDS011;14837;57.148;-2.144;2023-04-26T01:34:27;2.90;;;1.88;;
27365;SDS011;14837;57.148;-2.144;2023-04-26T01:36:54;5.60;;;1.50;;
27365;SDS011;14837;57.148;-2.144;2023-04-26T01:39:21;3.67;;;1.85;;
27365;SDS011;14837;57.148;-2.144;2023-04-26T01:41:47;6.38;;;1.98;;
27365;SDS011;14837;57.148;-2.144;2023-04-26T01:44:14;4.18;;;1.92;;
27365;SDS011;14837;57.148;-2.144;2023-04-26T01:46:40;5.53;;;1.55;;
27365;SDS011;14837;57.148;-2.144;2023-04-26T01:49:07;5.93;;;1.88;;
27365;SDS011;14837;57.148;-2.144;2023-04-26T01:51:34;4.22;;;1.30;;
27365;SDS011;14837;57.148;-2.144;2023-04-26T01:54:01;4.82;;;1.98;;
27365;SDS011;14837;57.148;-2.144;2023-04-26T01:56:28;3.45;;;2.03;;
27365;SDS011;14837;57.148;-2.144;2023-04-26T01:58:54;3.08;;;1.58;;
27365;SDS011;14837;57.148;-2.144;2023-04-26T02:01:21;5.63;;;1.73;;
27365;SDS011;14837;57.148;-2.144;2023-04-26T02:03:48;4.15;;;1.80;;
27365;SDS011;14837;57.148;-2.144;2023-04-26T02:06:15;6.35;;;1.75;;
27365;SDS011;14837;57.148;-2.144;2023-04-26T02:08:41;4.93;;;1.80;;
27365;SDS011;14837;57.148;-2.144;2023-04-26T02:11:08;4.80;;;1.65;;
27365;SDS011;14837;57.148;-2.144;2023-04-26T02:13:35;2.97;;;1.33;;
27365;SDS011;14837;57.148;-2.144;2023-04-26T02:16:01;3.38;;;1.90;;
27365;SDS011;14837;57.148;-2.144;2023-04-26T02:18:28;5.95;;;1.27;;
27365;SDS011;14837;57.148;-2.144;2023-04-26T02:20:55;3.08;;;1.40;;
27365;SDS011;14837;57.148;-2.144;2023-04-26T02:23:21;7.72;;;2.08;;
27365;SDS011;14837;57.148;-2.144;2023-04-26T02:25:49;3.72;;;1.58;;
27365;SDS011;14837;57.148;-2.144;2023-04-26T02:28:16;5.65;;;1.90;;
27365;SDS011;14837;57.148;-2.144;2023-04-26T02:30:42;3.33;;;1.48;;
27365;SDS011;14837;57.148;-2.144;2023-04-26T02:33:09;2.38;;;1.48;;
27365;SDS011;14837;57.148;-2.144;2023-04-26T02:35:36;3.42;;;1.35;;
27365;SDS011;14837;57.148;-2.144;2023-04-26T02:38:03;6.82;;;2.20;;
27365;SDS011;14837;57.148;-2.144;2023-04-26T02:40:29;3.97;;;2.13;;
27365;SDS011;14837;57.148;-2.144;2023-04-26T02:42:56;6.53;;;2.00;;
27365;SDS011;14837;57.148;-2.144;2023-04-26T02:45:22;4.35;;;1.50;;
27365;SDS011;14837;57.148;-2.144;2023-04-26T02:47:49;2.42;;;1.40;;
27365;SDS011;14837;57.148;-2.144;2023-04-26T02:50:15;4.65;;;1.45;;
27365;SDS011;14837;57.148;-2.144;2023-04-26T02:52:42;3.03;;;1.60;;
27365;SDS011;14837;57.148;-2.144;2023-04-26T02:55:09;4.82;;;2.47;;
27365;SDS011;14837;57.148;-2.144;2023-04-26T02:57:35;5.03;;;2.35;;
27365;SDS011;14837;57.148;-2.144;2023-04-26T03:00:02;6.57;;;1.75;;
27365;SDS011;14837;57.148;-2.144;2023-04-26T03:02:30;6.10;;;1.90;;
27365;SDS011;14837;57.148;-2.144;2023-04-26T03:04:57;5.63;;;1.80;;
27365;SDS011;14837;57.148;-2.144;2023-04-26T03:07:24;2.40;;;1.58;;
27365;SDS011;14837;57.148;-2.144;2023-04-26T03:09:51;3.33;;;1.55;;
27365;SDS011;14837;57.148;-2.144;2023-04-26T03:12:17;2.60;;;1.58;;
27365;SDS011;14837;57.148;-2.144;2023-04-26T03:14:44;4.78;;;1.67;;
27365;SDS011;14837;57.148;-2.144;2023-04-26T03:17:10;1.80;;;1.50;;
27365;SDS011;14837;57.148;-2.144;2023-04-26T03:19:37;5.28;;;1.75;;
27365;SDS011;14837;57.148;-2.144;2023-04-26T03:22:04;5.35;;;1.92;;
27365;SDS011;14837;57.148;-2.144;2023-04-26T03:24:31;4.70;;;1.70;;
27365;SDS011;14837;57.148;-2.144;2023-04-26T03:26:57;2.92;;;1.60;;
27365;SDS011;14837;57.148;-2.144;2023-04-26T03:29:25;4.90;;;1.83;;
27365;SDS011;14837;57.148;-2.144;2023-04-26T03:31:52;3.80;;;1.83;;
27365;SDS011;14837;57.148;-2.144;2023-04-26T03:34:18;4.50;;;2.13;;
27365;SDS011;14837;57.148;-2.144;2023-04-26T03:36:45;2.25;;;1.20;;
27365;SDS011;14837;57.148;-2.144;2023-04-26T03:39:12;6.80;;;1.83;;
27365;SDS011;14837;57.148;-2.144;2023-04-26T03:41:38;2.95;;;1.13;;
27365;SDS011;14837;57.148;-2.144;2023-04-26T03:44:05;2.60;;;1.48;;
27365;SDS011;14837;57.148;-2.144;2023-04-26T03:46:32;3.25;;;1.38;;
27365;SDS011;14837;57.148;-2.144;2023-04-26T03:48:59;3.67;;;1.60;;
27365;SDS011;14837;57.148;-2.144;2023-04-26T03:51:25;3.42;;;1.27;;
27365;SDS011;14837;57.148;-2.144;2023-04-26T03:53:53;1.98;;;1.48;;
27365;SDS011;14837;57.148;-2.144;2023-04-26T03:56:20;5.53;;;1.65;;
27365;SDS011;14837;57.148;-2.144;2023-04-26T03:58:46;5.00;;;1.70;;
27365;SDS011;14837;57.148;-2.144;2023-04-26T04:01:13;3.22;;;1.23;;
27365;SDS011;14837;57.148;-2.144;2023-04-26T04:03:40;2.92;;;1.60;;
27365;SDS011;14837;57.148;-2.144;2023-04-26T04:06:08;2.90;;;1.58;;
27365;SDS011;14837;57.148;-2.144;2023-04-26T04:08:34;2.25;;;1.60;;
27365;SDS011;14837;57.148;-2.144;2023-04-26T04:11:01;3.30;;;1.40;;
27365;SDS011;14837;57.148;-2.144;2023-04-26T04:13:27;5.32;;;1.80;;
27365;SDS011;14837;57.148;-2.144;2023-04-26T04:15:54;3.92;;;1.27;;
27365;SDS011;14837;57.148;-2.144;2023-04-26T04:18:20;1.83;;;1.25;;
27365;SDS011;14837;57.148;-2.144;2023-04-26T04:20:47;4.20;;;1.55;;
27365;SDS011;14837;57.148;-2.144;2023-04-26T04:23:14;3.88;;;1.40;;
27365;SDS011;14837;57.148;-2.144;2023-04-26T04:25:40;4.07;;;1.50;;
27365;SDS011;14837;57.148;-2.144;2023-04-26T04:28:07;5.47;;;1.45;;
27365;SDS011;14837;57.148;-2.144;2023-04-26T04:30:34;3.97;;;1.45;;
27365;SDS011;14837;57.148;-2.144;2023-04-26T04:33:01;5.43;;;1.67;;
27365;SDS011;14837;57.148;-2.144;2023-04-26T04:35:29;3.13;;;1.60;;
27365;SDS011;14837;57.148;-2.144;2023-04-26T04:37:59;6.30;;;1.77;;
27365;SDS011;14837;57.148;-2.144;2023-04-26T04:40:26;2.85;;;1.52;;
27365;SDS011;14837;57.148;-2.144;2023-04-26T04:42:52;2.20;;;1.23;;
27365;SDS011;14837;57.148;-2.144;2023-04-26T04:45:20;2.70;;;1.05;;
27365;SDS011;14837;57.148;-2.144;2023-04-26T04:47:46;4.80;;;1.60;;
27365;SDS011;14837;57.148;-2.144;2023-04-26T04:50:13;4.10;;;1.50;;
27365;SDS011;14837;57.148;-2.144;2023-04-26T04:52:40;4.40;;;1.60;;
27365;SDS011;14837;57.148;-2.144;2023-04-26T04:55:07;2.47;;;1.27;;
27365;SDS011;14837;57.148;-2.144;2023-04-26T04:57:34;3.03;;;1.10;;
27365;SDS011;14837;57.148;-2.144;2023-04-26T05:00:01;6.63;;;1.60;;
27365;SDS011;14837;57.148;-2.144;2023-04-26T05:02:35;6.43;;;1.50;;
27365;SDS011;14837;57.148;-2.144;2023-04-26T05:05:03;6.53;;;1.50;;
27365;SDS011;14837;57.148;-2.144;2023-04-26T05:07:30;4.32;;;1.58;;
27365;SDS011;14837;57.148;-2.144;2023-04-26T05:09:57;4.07;;;1.35;;
27365;SDS011;14837;57.148;-2.144;2023-04-26T05:12:25;5.95;;;1.42;;
27365;SDS011;14837;57.148;-2.144;2023-04-26T05:14:52;2.50;;;1.33;;
27365;SDS011;14837;57.148;-2.144;2023-04-26T05:17:18;1.85;;;1.35;;
27365;SDS011;14837;57.148;-2.144;2023-04-26T05:19:45;3.13;;;1.13;;
27365;SDS011;14837;57.148;-2.144;2023-04-26T05:22:12;1.50;;;1.27;;
27365;SDS011;14837;57.148;-2.144;2023-04-26T05:24:46;3.50;;;1.33;;
27365;SDS011;14837;57.148;-2.144;2023-04-26T05:27:13;1.42;;;1.20;;
27365;SDS011;14837;57.148;-2.144;2023-04-26T05:29:40;2.80;;;1.50;;
27365;SDS011;14837;57.148;-2.144;2023-04-26T05:32:06;8.10;;;2.58;;
27365;SDS011;14837;57.148;-2.144;2023-04-26T05:34:34;2.72;;;1.40;;
27365;SDS011;14837;57.148;-2.144;2023-04-26T05:37:00;5.20;;;1.67;;
27365;SDS011;14837;57.148;-2.144;2023-04-26T05:39:27;5.95;;;1.30;;
27365;SDS011;14837;57.148;-2.144;2023-04-26T05:41:53;7.72;;;1.95;;
27365;SDS011;14837;57.148;-2.144;2023-04-26T05:44:20;1.95;;;1.25;;
27365;SDS011;14837;57.148;-2.144;2023-04-26T05:46:46;5.95;;;2.85;;
27365;SDS011;14837;57.148;-2.144;2023-04-26T05:49:13;5.47;;;1.73;;
27365;SDS011;14837;57.148;-2.144;2023-04-26T05:51:39;5.53;;;2.25;;
27365;SDS011;14837;57.148;-2.144;2023-04-26T05:54:06;3.20;;;1.45;;
27365;SDS011;14837;57.148;-2.144;2023-04-26T05:56:33;4.00;;;1.52;;
27365;SDS011;14837;57.148;-2.144;2023-04-26T05:58:59;4.43;;;2.70;;
27365;SDS011;14837;57.148;-2.144;2023-04-26T06:01:26;3.65;;;1.48;;
27365;SDS011;14837;57.148;-2.144;2023-04-26T06:03:53;3.63;;;1.60;;
27365;SDS011;14837;57.148;-2.144;2023-04-26T06:06:25;1.85;;;1.20;;
27365;SDS011;14837;57.148;-2.144;2023-04-26T06:08:53;2.35;;;1.85;;
27365;SDS011;14837;57.148;-2.144;2023-04-26T06:11:20;3.28;;;1.30;;
27365;SDS011;14837;57.148;-2.144;2023-04-26T06:13:47;5.13;;;1.70;;
27365;SDS011;14837;57.148;-2.144;2023-04-26T06:16:13;4.28;;;1.85;;
27365;SDS011;14837;57.148;-2.144;2023-04-26T06:18:40;2.55;;;1.45;;
27365;SDS011;14837;57.148;-2.144;2023-04-26T06:21:07;7.38;;;1.60;;
27365;SDS011;14837;57.148;-2.144;2023-04-26T06:23:33;2.97;;;1.60;;
27365;SDS011;14837;57.148;-2.144;2023-04-26T06:26:00;2.58;;;1.40;;
27365;SDS011;14837;57.148;-2.144;2023-04-26T06:28:27;3.10;;;1.48;;
27365;SDS011;14837;57.148;-2.144;2023-04-26T06:30:53;2.28;;;1.58;;
27365;SDS011;14837;57.148;-2.144;2023-04-26T06:33:20;6.72;;;1.75;;
27365;SDS011;14837;57.148;-2.144;2023-04-26T06:35:46;5.05;;;1.52;;
27365;SDS011;14837;57.148;-2.144;2023-04-26T06:38:13;3.10;;;1.77;;
27365;SDS011;14837;57.148;-2.144;2023-04-26T06:40:39;3.33;;;1.63;;
27365;SDS011;14837;57.148;-2.144;2023-04-26T06:43:06;12.55;;;1.98;;
27365;SDS011;14837;57.148;-2.144;2023-04-26T06:45:33;3.75;;;1.45;;
27365;SDS011;14837;57.148;-2.144;2023-04-26T06:47:59;3.25;;;1.92;;
27365;SDS011;14837;57.148;-2.144;2023-04-26T06:50:27;5.72;;;1.85;;
27365;SDS011;14837;57.148;-2.144;2023-04-26T06:52:53;2.17;;;1.20;;
27365;SDS011;14837;57.148;-2.144;2023-04-26T06:55:20;4.20;;;1.35;;
27365;SDS011;14837;57.148;-2.144;2023-04-26T06:57:48;3.40;;;1.90;;
27365;SDS011;14837;57.148;-2.144;2023-04-26T07:00:14;9.52;;;2.03;;
27365;SDS011;14837;57.148;-2.144;2023-04-26T07:02:41;3.88;;;1.17;;
27365;SDS011;14837;57.148;-2.144;2023-04-26T07:05:08;5.68;;;1.92;;
27365;SDS011;14837;57.148;-2.144;2023-04-26T07:07:34;3.22;;;1.67;;
27365;SDS011;14837;57.148;-2.144;2023-04-26T07:10:01;5.25;;;1.55;;
27365;SDS011;14837;57.148;-2.144;2023-04-26T07:12:28;7.65;;;1.90;;
27365;SDS011;14837;57.148;-2.144;2023-04-26T07:14:54;4.63;;;1.98;;
27365;SDS011;14837;57.148;-2.144;2023-04-26T07:17:21;4.95;;;1.63;;
27365;SDS011;14837;57.148;-2.144;2023-04-26T07:19:47;4.20;;;1.17;;
27365;SDS011;14837;57.148;-2.144;2023-04-26T07:22:14;5.07;;;1.60;;
27365;SDS011;14837;57.148;-2.144;2023-04-26T07:24:41;2.92;;;2.25;;
27365;SDS011;14837;57.148;-2.144;2023-04-26T07:27:07;4.88;;;2.33;;
27365;SDS011;14837;57.148;-2.144;2023-04-26T07:29:34;2.08;;;1.33;;
27365;SDS011;14837;57.148;-2.144;2023-04-26T07:32:01;8.10;;;1.88;;
27365;SDS011;14837;57.148;-2.144;2023-04-26T07:34:27;5.97;;;1.75;;
27365;SDS011;14837;57.148;-2.144;2023-04-26T07:36:54;7.80;;;2.35;;
27365;SDS011;14837;57.148;-2.144;2023-04-26T07:39:21;7.88;;;1.88;;
27365;SDS011;14837;57.148;-2.144;2023-04-26T07:41:48;4.60;;;2.05;;
27365;SDS011;14837;57.148;-2.144;2023-04-26T07:44:14;4.75;;;2.08;;
27365;SDS011;14837;57.148;-2.144;2023-04-26T07:46:41;10.00;;;2.35;;
27365;SDS011;14837;57.148;-2.144;2023-04-26T07:49:07;4.53;;;2.17;;
27365;SDS011;14837;57.148;-2.144;2023-04-26T07:51:34;6.47;;;1.48;;
27365;SDS011;14837;57.148;-2.144;2023-04-26T07:54:01;5.28;;;2.00;;
27365;SDS011;14837;57.148;-2.144;2023-04-26T07:56:27;4.28;;;1.60;;
27365;SDS011;14837;57.148;-2.144;2023-04-26T07:58:54;4.50;;;3.05;;
27365;SDS011;14837;57.148;-2.144;2023-04-26T08:01:21;4.15;;;1.70;;
27365;SDS011;14837;57.148;-2.144;2023-04-26T08:03:48;7.00;;;2.00;;
27365;SDS011;14837;57.148;-2.144;2023-04-26T08:06:15;4.55;;;1.70;;
27365;SDS011;14837;57.148;-2.144;2023-04-26T08:08:42;6.10;;;1.50;;
27365;SDS011;14837;57.148;-2.144;2023-04-26T08:11:10;4.85;;;1.85;;
27365;SDS011;14837;57.148;-2.144;2023-04-26T08:13:37;3.10;;;1.38;;
27365;SDS011;14837;57.148;-2.144;2023-04-26T08:16:04;2.60;;;1.55;;
27365;SDS011;14837;57.148;-2.144;2023-04-26T08:18:30;6.93;;;1.77;;
27365;SDS011;14837;57.148;-2.144;2023-04-26T08:20:57;4.28;;;1.85;;
27365;SDS011;14837;57.148;-2.144;2023-04-26T08:23:24;5.03;;;1.98;;
27365;SDS011;14837;57.148;-2.144;2023-04-26T08:25:50;6.93;;;2.35;;
27365;SDS011;14837;57.148;-2.144;2023-04-26T08:28:17;6.88;;;2.05;;
27365;SDS011;14837;57.148;-2.144;2023-04-26T08:30:43;4.40;;;2.10;;
27365;SDS011;14837;57.148;-2.144;2023-04-26T08:33:10;7.03;;;1.75;;
27365;SDS011;14837;57.148;-2.144;2023-04-26T08:35:36;7.07;;;2.05;;
27365;SDS011;14837;57.148;-2.144;2023-04-26T08:38:03;2.25;;;1.42;;
27365;SDS011;14837;57.148;-2.144;2023-04-26T08:40:29;2.20;;;1.40;;
27365;SDS011;14837;57.148;-2.144;2023-04-26T08:42:56;2.97;;;1.90;;
27365;SDS011;14837;57.148;-2.144;2023-04-26T08:45:23;4.32;;;1.73;;
27365;SDS011;14837;57.148;-2.144;2023-04-26T08:47:55;3.35;;;1.63;;
27365;SDS011;14837;57.148;-2.144;2023-04-26T08:50:24;2.88;;;1.35;;
27365;SDS011;14837;57.148;-2.144;2023-04-26T08:52:50;5.93;;;1.48;;
27365;SDS011;14837;57.148;-2.144;2023-04-26T08:55:18;3.80;;;1.42;;
27365;SDS011;14837;57.148;-2.144;2023-04-26T08:57:48;3.80;;;1.58;;
27365;SDS011;14837;57.148;-2.144;2023-04-26T09:00:15;3.97;;;1.33;;
27365;SDS011;14837;57.148;-2.144;2023-04-26T09:02:46;4.35;;;1.70;;
27365;SDS011;14837;57.148;-2.144;2023-04-26T09:05:13;2.97;;;1.25;;
27365;SDS011;14837;57.148;-2.144;2023-04-26T09:07:40;3.17;;;1.63;;
27365;SDS011;14837;57.148;-2.144;2023-04-26T09:10:08;10.80;;;2.42;;
27365;SDS011;14837;57.148;-2.144;2023-04-26T09:12:35;2.70;;;1.38;;
27365;SDS011;14837;57.148;-2.144;2023-04-26T09:15:02;3.65;;;1.60;;
27365;SDS011;14837;57.148;-2.144;2023-04-26T09:17:30;3.65;;;1.58;;
27365;SDS011;14837;57.148;-2.144;2023-04-26T09:19:58;3.60;;;1.40;;
27365;SDS011;14837;57.148;-2.144;2023-04-26T09:22:32;2.63;;;1.42;;
27365;SDS011;14837;57.148;-2.144;2023-04-26T09:24:59;4.53;;;1.45;;
27365;SDS011;14837;57.148;-2.144;2023-04-26T09:27:45;4.22;;;1.85;;
27365;SDS011;14837;57.148;-2.144;2023-04-26T09:30:13;4.38;;;1.55;;
27365;SDS011;14837;57.148;-2.144;2023-04-26T09:35:21;4.45;;;1.20;;
27365;SDS011;14837;57.148;-2.144;2023-04-26T09:37:58;1.88;;;1.23;;
27365;SDS011;14837;57.148;-2.144;2023-04-26T09:45:30;3.33;;;1.45;;
27365;SDS011;14837;57.148;-2.144;2023-04-26T09:48:13;2.40;;;1.30;;
27365;SDS011;14837;57.148;-2.144;2023-04-26T09:50:42;3.38;;;1.13;;
27365;SDS011;14837;57.148;-2.144;2023-04-26T09:53:12;2.08;;;1.30;;
27365;SDS011;14837;57.148;-2.144;2023-04-26T09:55:49;3.60;;;1.23;;
27365;SDS011;14837;57.148;-2.144;2023-04-26T09:58:16;2.38;;;1.20;;
27365;SDS011;14837;57.148;-2.144;2023-04-26T10:00:42;1.92;;;1.33;;
27365;SDS011;14837;57.148;-2.144;2023-04-26T10:03:09;2.63;;;1.40;;
27365;SDS011;14837;57.148;-2.144;2023-04-26T10:05:36;3.45;;;1.77;;
27365;SDS011;14837;57.148;-2.144;2023-04-26T10:08:04;2.03;;;1.27;;
27365;SDS011;14837;57.148;-2.144;2023-04-26T10:10:31;2.85;;;2.17;;
27365;SDS011;14837;57.148;-2.144;2023-04-26T10:12:57;5.40;;;1.40;;
27365;SDS011;14837;57.148;-2.144;2023-04-26T10:15:24;3.10;;;1.15;;
27365;SDS011;14837;57.148;-2.144;2023-04-26T10:17:51;2.40;;;1.13;;
27365;SDS011;14837;57.148;-2.144;2023-04-26T10:20:18;4.57;;;2.13;;
27365;SDS011;14837;57.148;-2.144;2023-04-26T10:22:53;2.88;;;1.95;;
27365;SDS011;14837;57.148;-2.144;2023-04-26T10:25:20;2.60;;;1.30;;
27365;SDS011;14837;57.148;-2.144;2023-04-26T10:27:59;2.50;;;1.10;;
27365;SDS011;14837;57.148;-2.144;2023-04-26T10:30:26;3.40;;;1.27;;
27365;SDS011;14837;57.148;-2.144;2023-04-26T10:35:25;2.15;;;1.23;;
27365;SDS011;14837;57.148;-2.144;2023-04-26T10:40:28;5.25;;;2.00;;
27365;SDS011;14837;57.148;-2.144;2023-04-26T10:45:34;2.97;;;1.15;;
27365;SDS011;14837;57.148;-2.144;2023-04-26T10:48:20;2.40;;;0.90;;
27365;SDS011;14837;57.148;-2.144;2023-04-26T10:59:06;4.63;;;1.35;;
27365;SDS011;14837;57.148;-2.144;2023-04-26T11:01:52;4.78;;;1.38;;
27365;SDS011;14837;57.148;-2.144;2023-04-26T11:04:19;1.50;;;1.10;;
27365;SDS011;14837;57.148;-2.144;2023-04-26T11:06:49;2.83;;;1.23;;
27365;SDS011;14837;57.148;-2.144;2023-04-26T11:09:33;1.75;;;0.93;;
27365;SDS011;14837;57.148;-2.144;2023-04-26T11:12:03;5.07;;;1.83;;
27365;SDS011;14837;57.148;-2.144;2023-04-26T11:14:31;1.83;;;1.00;;
27365;SDS011;14837;57.148;-2.144;2023-04-26T11:16:58;2.95;;;1.25;;
27365;SDS011;14837;57.148;-2.144;2023-04-26T11:19:28;3.20;;;1.60;;
27365;SDS011;14837;57.148;-2.144;2023-04-26T11:21:55;2.55;;;1.13;;
27365;SDS011;14837;57.148;-2.144;2023-04-26T11:24:25;3.10;;;1.00;;
27365;SDS011;14837;57.148;-2.144;2023-04-26T11:26:52;2.45;;;1.48;;
27365;SDS011;14837;57.148;-2.144;2023-04-26T11:29:19;2.88;;;1.55;;
27365;SDS011;14837;57.148;-2.144;2023-04-26T11:34:36;5.35;;;2.22;;
27365;SDS011;14837;57.148;-2.144;2023-04-26T11:37:04;4.30;;;1.58;;
27365;SDS011;14837;57.148;-2.144;2023-04-26T11:39:32;2.88;;;1.20;;
27365;SDS011;14837;57.148;-2.144;2023-04-26T11:42:08;1.95;;;1.33;;
27365;SDS011;14837;57.148;-2.144;2023-04-26T11:44:35;2.17;;;1.42;;
27365;SDS011;14837;57.148;-2.144;2023-04-26T11:47:05;3.38;;;1.23;;
27365;SDS011;14837;57.148;-2.144;2023-04-26T11:49:33;2.35;;;1.30;;
27365;SDS011;14837;57.148;-2.144;2023-04-26T11:52:01;2.17;;;1.25;;
27365;SDS011;14837;57.148;-2.144;2023-04-26T11:54:31;2.17;;;1.33;;
27365;SDS011;14837;57.148;-2.144;2023-04-26T11:56:58;4.85;;;1.17;;
27365;SDS011;14837;57.148;-2.144;2023-04-26T12:01:51;2.22;;;1.10;;
27365;SDS011;14837;57.148;-2.144;2023-04-26T12:04:26;2.03;;;1.13;;
27365;SDS011;14837;57.148;-2.144;2023-04-26T12:06:56;3.63;;;1.42;;
27365;SDS011;14837;57.148;-2.144;2023-04-26T12:09:23;7.57;;;1.38;;
27365;SDS011;14837;57.148;-2.144;2023-04-26T12:11:55;2.22;;;1.55;;
27365;SDS011;14837;57.148;-2.144;2023-04-26T12:14:33;3.58;;;1.85;;
27365;SDS011;14837;57.148;-2.144;2023-04-26T12:17:00;4.43;;;1.60;;
27365;SDS011;14837;57.148;-2.144;2023-04-26T12:19:38;1.90;;;1.10;;
27365;SDS011;14837;57.148;-2.144;2023-04-26T12:22:05;3.92;;;1.20;;
27365;SDS011;14837;57.148;-2.144;2023-04-26T12:24:32;2.80;;;1.30;;
27365;SDS011;14837;57.148;-2.144;2023-04-26T12:27:04;2.05;;;1.10;;
27365;SDS011;14837;57.148;-2.144;2023-04-26T12:29:32;1.95;;;1.30;;
27365;SDS011;14837;57.148;-2.144;2023-04-26T12:31:59;2.33;;;1.92;;
27365;SDS011;14837;57.148;-2.144;2023-04-26T12:34:26;2.85;;;1.33;;
27365;SDS011;14837;57.148;-2.144;2023-04-26T12:36:53;6.00;;;1.40;;
27365;SDS011;14837;57.148;-2.144;2023-04-26T12:39:20;3.28;;;1.30;;
27365;SDS011;14837;57.148;-2.144;2023-04-26T12:41:46;3.38;;;2.08;;
27365;SDS011;14837;57.148;-2.144;2023-04-26T12:44:13;3.03;;;1.63;;
27365;SDS011;14837;57.148;-2.144;2023-04-26T12:46:40;3.25;;;1.27;;
27365;SDS011;14837;57.148;-2.144;2023-04-26T12:49:06;2.85;;;1.13;;
27365;SDS011;14837;57.148;-2.144;2023-04-26T12:51:33;2.65;;;1.10;;
27365;SDS011;14837;57.148;-2.144;2023-04-26T12:54:00;3.28;;;1.50;;
27365;SDS011;14837;57.148;-2.144;2023-04-26T12:56:27;3.50;;;1.70;;
27365;SDS011;14837;57.148;-2.144;2023-04-26T12:58:54;2.17;;;1.40;;
27365;SDS011;14837;57.148;-2.144;2023-04-26T13:01:21;4.70;;;1.33;;
27365;SDS011;14837;57.148;-2.144;2023-04-26T13:03:47;2.85;;;1.40;;
27365;SDS011;14837;57.148;-2.144;2023-04-26T13:06:14;2.00;;;1.33;;
27365;SDS011;14837;57.148;-2.144;2023-04-26T13:08:41;5.15;;;1.52;;
27365;SDS011;14837;57.148;-2.144;2023-04-26T13:11:07;4.72;;;2.08;;
27365;SDS011;14837;57.148;-2.144;2023-04-26T13:13:34;3.38;;;1.65;;
27365;SDS011;14837;57.148;-2.144;2023-04-26T13:16:09;2.53;;;1.25;;
27365;SDS011;14837;57.148;-2.144;2023-04-26T13:18:38;4.25;;;1.60;;
27365;SDS011;14837;57.148;-2.144;2023-04-26T13:21:04;2.30;;;1.05;;
27365;SDS011;14837;57.148;-2.144;2023-04-26T13:23:31;2.67;;;1.55;;
27365;SDS011;14837;57.148;-2.144;2023-04-26T13:25:57;2.15;;;1.50;;
27365;SDS011;14837;57.148;-2.144;2023-04-26T13:28:24;4.60;;;1.65;;
27365;SDS011;14837;57.148;-2.144;2023-04-26T13:30:50;2.97;;;1.67;;
27365;SDS011;14837;57.148;-2.144;2023-04-26T13:33:17;3.20;;;1.50;;
27365;SDS011;14837;57.148;-2.144;2023-04-26T13:35:46;1.88;;;1.48;;
27365;SDS011;14837;57.148;-2.144;2023-04-26T13:38:13;3.83;;;1.63;;
27365;SDS011;14837;57.148;-2.144;2023-04-26T13:40:40;3.05;;;1.52;;
27365;SDS011;14837;57.148;-2.144;2023-04-26T13:43:06;2.13;;;1.38;;
27365;SDS011;14837;57.148;-2.144;2023-04-26T13:45:33;2.88;;;1.88;;
27365;SDS011;14837;57.148;-2.144;2023-04-26T13:48:01;4.82;;;1.40;;
27365;SDS011;14837;57.148;-2.144;2023-04-26T13:50:27;2.63;;;1.70;;
27365;SDS011;14837;57.148;-2.144;2023-04-26T13:52:54;1.63;;;1.42;;
27365;SDS011;14837;57.148;-2.144;2023-04-26T13:55:21;4.40;;;3.08;;
27365;SDS011;14837;57.148;-2.144;2023-04-26T13:57:48;3.83;;;2.17;;
27365;SDS011;14837;57.148;-2.144;2023-04-26T14:00:15;4.97;;;2.35;;
27365;SDS011;14837;57.148;-2.144;2023-04-26T14:02:41;2.65;;;1.63;;
27365;SDS011;14837;57.148;-2.144;2023-04-26T14:05:08;2.55;;;1.60;;
27365;SDS011;14837;57.148;-2.144;2023-04-26T14:07:35;4.55;;;2.20;;
27365;SDS011;14837;57.148;-2.144;2023-04-26T14:10:02;7.35;;;2.50;;
27365;SDS011;14837;57.148;-2.144;2023-04-26T14:12:29;5.40;;;2.72;;
27365;SDS011;14837;57.148;-2.144;2023-04-26T14:14:56;4.25;;;2.40;;
27365;SDS011;14837;57.148;-2.144;2023-04-26T14:17:22;10.27;;;4.82;;
27365;SDS011;14837;57.148;-2.144;2023-04-26T14:19:49;11.10;;;9.07;;
27365;SDS011;14837;57.148;-2.144;2023-04-26T14:22:17;10.00;;;5.35;;
27365;SDS011;14837;57.148;-2.144;2023-04-26T14:24:44;6.60;;;4.78;;
27365;SDS011;14837;57.148;-2.144;2023-04-26T14:27:11;5.63;;;2.95;;
27365;SDS011;14837;57.148;-2.144;2023-04-26T14:29:38;6.57;;;4.00;;
27365;SDS011;14837;57.148;-2.144;2023-04-26T14:32:05;5.20;;;3.17;;
27365;SDS011;14837;57.148;-2.144;2023-04-26T14:34:32;6.18;;;3.33;;
27365;SDS011;14837;57.148;-2.144;2023-04-26T14:36:59;5.47;;;2.60;;
27365;SDS011;14837;57.148;-2.144;2023-04-26T14:39:27;5.97;;;2.90;;
27365;SDS011;14837;57.148;-2.144;2023-04-26T14:41:53;5.57;;;1.85;;
27365;SDS011;14837;57.148;-2.144;2023-04-26T14:44:23;8.85;;;3.88;;
27365;SDS011;14837;57.148;-2.144;2023-04-26T14:46:50;11.90;;;6.57;;
27365;SDS011;14837;57.148;-2.144;2023-04-26T14:49:17;6.45;;;3.45;;
27365;SDS011;14837;57.148;-2.144;2023-04-26T14:51:44;15.32;;;10.38;;
27365;SDS011;14837;57.148;-2.144;2023-04-26T14:54:11;16.85;;;10.18;;
27365;SDS011;14837;57.148;-2.144;2023-04-26T14:56:37;8.05;;;5.78;;
27365;SDS011;14837;57.148;-2.144;2023-04-26T14:59:04;5.45;;;2.97;;
27365;SDS011;14837;57.148;-2.144;2023-04-26T15:01:30;5.05;;;2.28;;
27365;SDS011;14837;57.148;-2.144;2023-04-26T15:03:57;4.15;;;1.83;;